Time;durP1;ratioP1;P1;durP2;ratioP2;P2;SDS_P1;SDS_P2;PMS_P1;PMS_P2;Temp;Humidity;BMP_temperature;BMP_pressure;BME280_temperature;BME280_humidity;BME280_pressure;Samples;Min_cycle;Max_cycle;Signal;HPM_P1;HPM_P2
2021/10/08 00:00:14;;;;;;;0.80;0.50;;;;;;;11.43;100.00;98028.38;5028130;28;20473;-80
2021/10/08 00:02:40;;;;;;;0.63;0.28;;;;;;;11.49;100.00;98037.84;5060746;28;20034;-79
2021/10/08 00:05:06;;;;;;;1.02;0.95;;;;;;;11.48;100.00;98025.41;5031954;28;20411;-80
2021/10/08 00:07:31;;;;;;;1.48;0.90;;;;;;;11.29;100.00;97977.41;5030257;28;20404;-79
2021/10/08 00:09:57;;;;;;;1.08;0.70;;;;;;;11.49;100.00;98022.66;5045105;28;20033;-80
2021/10/08 00:12:22;;;;;;;1.67;0.80;;;;;;;11.41;100.00;98003.50;5030881;28;20033;-80
2021/10/08 00:14:48;;;;;;;0.32;0.28;;;;;;;11.39;100.00;98014.28;5030959;28;20029;-80
2021/10/08 00:17:14;;;;;;;1.05;0.75;;;;;;;11.50;100.00;98034.25;5025645;28;20507;-80
2021/10/08 00:19:39;;;;;;;2.90;1.38;;;;;;;11.56;100.00;98033.88;5029978;28;20029;-80
2021/10/08 00:22:05;;;;;;;0.50;0.32;;;;;;;11.46;100.00;98027.31;5027674;28;20090;-80
2021/10/08 00:24:30;;;;;;;0.45;0.45;;;;;;;11.49;100.00;98037.84;5037604;28;20024;-80
2021/10/08 00:26:56;;;;;;;0.57;0.57;;;;;;;11.36;100.00;98035.88;5028246;28;20031;-80
2021/10/08 00:29:36;;;;;;;0.30;0.30;;;;;;;11.33;100.00;98016.44;5030692;28;20508;-80
2021/10/08 00:32:01;;;;;;;2.30;0.55;;;;;;;11.38;100.00;98017.06;5025027;28;20026;-80
2021/10/08 00:34:27;;;;;;;0.10;0.10;;;;;;;11.43;100.00;98023.88;5028136;28;20186;-79
2021/10/08 00:36:52;;;;;;;0.63;0.63;;;;;;;11.35;100.00;98023.44;5022148;28;20501;-80
2021/10/08 00:39:18;;;;;;;1.73;0.75;;;;;;;11.44;100.00;98022.06;5024985;28;20036;-80
2021/10/08 00:41:44;;;;;;;1.33;1.10;;;;;;;11.42;100.00;98027.50;5022011;28;20048;-81
2021/10/08 00:44:09;;;;;;;0.40;0.40;;;;;;;11.41;100.00;98017.72;5027200;28;20107;-81
2021/10/08 00:46:35;;;;;;;0.00;0.00;;;;;;;11.09;100.00;97969.66;5022008;28;20036;-80
2021/10/08 00:49:01;;;;;;;0.28;0.28;;;;;;;11.36;100.00;98011.78;5026707;28;20608;-80
2021/10/08 00:51:27;;;;;;;0.63;0.47;;;;;;;11.34;100.00;98008.34;5032816;28;20027;-80
2021/10/08 00:53:53;;;;;;;1.00;0.60;;;;;;;11.35;100.00;97999.34;5029519;28;20029;-81
2021/10/08 00:56:21;;;;;;;0.90;0.55;;;;;;;11.24;100.00;97999.09;5050817;28;20430;-80
2021/10/08 00:59:12;;;;;;;13.07;1.13;;;;;;;11.46;100.00;98021.97;5021495;28;20192;-80
2021/10/08 01:01:37;;;;;;;6.50;1.08;;;;;;;11.34;100.00;98008.34;5023964;28;20029;-80
2021/10/08 01:04:04;;;;;;;1.10;0.63;;;;;;;11.37;100.00;98005.50;5036702;28;20025;-80
2021/10/08 01:06:30;;;;;;;0.80;0.20;;;;;;;11.37;100.00;98009.97;5045967;28;20514;-81
2021/10/08 01:08:55;;;;;;;0.13;0.13;;;;;;;11.31;100.00;98018.38;5025208;28;20025;-80
2021/10/08 01:11:21;;;;;;;1.20;0.52;;;;;;;11.07;100.00;97966.22;5026414;28;20056;-81
2021/10/08 01:13:47;;;;;;;0.98;0.70;;;;;;;11.32;100.00;98018.25;5032709;28;20110;-80
2021/10/08 01:16:13;;;;;;;1.27;0.98;;;;;;;11.24;100.00;98007.13;5022620;28;20021;-80
2021/10/08 01:18:38;;;;;;;1.20;0.82;;;;;;;11.30;100.00;98019.31;5019807;28;20030;-81
2021/10/08 01:21:04;;;;;;;3.25;0.63;;;;;;;11.36;100.00;98032.34;5029275;28;20029;-81
2021/10/08 01:23:29;;;;;;;0.70;0.30;;;;;;;11.30;100.00;98022.84;5025403;28;20029;-81
2021/10/08 01:25:55;;;;;;;0.35;0.35;;;;;;;11.38;100.00;98031.28;5023918;28;20040;-81
2021/10/08 01:28:20;;;;;;;0.22;0.22;;;;;;;11.42;100.00;98027.50;5037450;28;20025;-81
2021/10/08 01:30:47;;;;;;;8.45;0.55;;;;;;;11.14;100.00;97972.94;5026336;28;20033;-81
2021/10/08 01:33:13;;;;;;;0.77;0.30;;;;;;;11.41;100.00;98015.03;5025727;28;20029;-81
2021/10/08 01:35:38;;;;;;;0.32;0.30;;;;;;;11.44;100.00;98022.91;5020640;28;20086;-81
2021/10/08 01:38:04;;;;;;;0.65;0.52;;;;;;;11.39;100.00;98013.41;5019183;28;20094;-80
2021/10/08 01:40:29;;;;;;;0.30;0.20;;;;;;;11.37;100.00;98013.53;5021806;28;20432;-81
2021/10/08 01:42:55;;;;;;;1.25;0.75;;;;;;;11.33;100.00;98006.59;5035490;28;20033;-81
2021/10/08 01:45:20;;;;;;;0.75;0.50;;;;;;;11.31;100.00;98002.28;5035066;28;20025;-81
2021/10/08 01:47:46;;;;;;;1.25;1.08;;;;;;;11.35;100.00;98004.69;5025977;28;20049;-81
2021/10/08 01:50:12;;;;;;;1.17;0.75;;;;;;;11.39;100.00;98022.31;5038853;28;20025;-81
2021/10/08 01:52:38;;;;;;;0.90;0.82;;;;;;;11.23;100.00;98013.44;5037750;28;20029;-82
2021/10/08 01:55:04;;;;;;;0.40;0.40;;;;;;;11.13;100.00;97993.50;5023012;28;20503;-81
2021/10/08 01:57:30;;;;;;;0.32;0.30;;;;;;;11.26;100.00;98025.78;5026497;28;20033;-81
2021/10/08 01:59:55;;;;;;;0.28;0.28;;;;;;;11.16;100.00;98000.50;5045450;28;20487;-81
2021/10/08 02:02:21;;;;;;;1.55;0.50;;;;;;;11.09;100.00;97986.59;5041565;28;20484;-81
2021/10/08 02:04:47;;;;;;;0.32;0.30;;;;;;;11.46;100.00;98032.69;5028802;28;20060;-81
2021/10/08 02:07:13;;;;;;;0.47;0.40;;;;;;;11.34;100.00;98026.22;5028003;28;20036;-80
2021/10/08 02:09:39;;;;;;;1.33;0.45;;;;;;;11.26;100.00;98017.75;5023166;28;20091;-81
2021/10/08 02:12:04;;;;;;;0.35;0.35;;;;;;;10.97;100.00;97975.72;5026074;28;20028;-81
2021/10/08 02:14:30;;;;;;;0.65;0.63;;;;;;;11.24;100.00;98017.84;5020040;28;20029;-81
2021/10/08 02:16:56;;;;;;;2.47;1.23;;;;;;;11.32;100.00;98025.44;5027575;28;20586;-81
2021/10/08 02:19:22;;;;;;;1.38;0.77;;;;;;;11.38;100.00;98028.63;5018728;28;20463;-81
2021/10/08 02:21:48;;;;;;;0.77;0.57;;;;;;;11.30;100.00;98025.53;5028892;28;20063;-81
2021/10/08 02:24:15;;;;;;;15.68;2.28;;;;;;;11.36;100.00;98030.53;5028450;28;20112;-80
2021/10/08 02:26:42;;;;;;;1.95;1.80;;;;;;;11.19;100.00;98005.69;5046094;28;20032;-80
2021/10/08 02:29:08;;;;;;;1.27;0.93;;;;;;;11.33;100.00;98027.16;5022423;28;20576;-81
2021/10/08 02:31:34;;;;;;;2.38;0.75;;;;;;;11.31;100.00;98029.94;5033868;28;20116;-81
2021/10/08 02:34:01;;;;;;;1.45;0.63;;;;;;;11.29;100.00;98030.94;5043480;28;20029;-81
2021/10/08 02:36:26;;;;;;;1.08;0.63;;;;;;;11.16;100.00;98013.88;5044844;28;20075;-81
2021/10/08 02:38:52;;;;;;;0.57;0.57;;;;;;;11.09;100.00;98005.31;5024030;28;20037;-81
2021/10/08 02:41:18;;;;;;;0.10;0.10;;;;;;;11.16;100.00;98003.16;5025373;28;20464;-79
2021/10/08 02:43:43;;;;;;;1.08;0.77;;;;;;;11.18;100.00;98015.50;5026106;28;20059;-81
2021/10/08 02:46:09;;;;;;;0.30;0.30;;;;;;;11.22;100.00;98014.41;5022216;28;20052;-81
2021/10/08 02:48:35;;;;;;;0.20;0.20;;;;;;;11.14;100.00;98005.91;5026227;28;20049;-80
2021/10/08 02:51:02;;;;;;;1.27;0.77;;;;;;;11.03;100.00;97994.97;5027812;28;20407;-81
2021/10/08 02:53:28;;;;;;;0.35;0.35;;;;;;;11.25;100.00;98021.38;5024114;28;20025;-81
2021/10/08 02:55:54;;;;;;;3.53;0.90;;;;;;;11.22;100.00;98019.75;5040604;28;20025;-80
2021/10/08 02:58:19;;;;;;;0.77;0.77;;;;;;;11.18;100.00;98010.16;5042423;28;20083;-80
2021/10/08 03:00:45;;;;;;;0.40;0.40;;;;;;;11.13;100.00;98014.94;5036641;28;20036;-80
2021/10/08 03:03:10;;;;;;;0.52;0.32;;;;;;;11.10;100.00;98017.78;5022550;28;20029;-80
2021/10/08 03:05:36;;;;;;;1.65;0.85;;;;;;;11.01;100.00;98023.66;5019556;28;20061;-80
2021/10/08 03:08:02;;;;;;;0.82;0.38;;;;;;;11.12;100.00;98025.69;5036354;28;20088;-80
2021/10/08 03:10:28;;;;;;;2.05;0.93;;;;;;;11.05;100.00;98014.47;5025835;28;20033;-80
2021/10/08 03:12:53;;;;;;;0.98;0.75;;;;;;;11.07;100.00;98007.25;5025808;28;20032;-80
2021/10/08 03:15:19;;;;;;;0.08;0.08;;;;;;;11.02;100.00;98006.63;5041539;28;20039;-80
2021/10/08 03:17:44;;;;;;;0.65;0.25;;;;;;;11.13;100.00;98025.63;5025271;28;20032;-80
2021/10/08 03:20:10;;;;;;;0.20;0.20;;;;;;;11.17;100.00;98032.53;5050749;28;20029;-80
2021/10/08 03:22:36;;;;;;;1.67;0.82;;;;;;;11.21;100.00;98023.38;5045180;28;20037;-80
2021/10/08 03:25:07;;;;;;;0.38;0.38;;;;;;;11.02;100.00;97995.91;5054721;28;20033;-80
2021/10/08 03:27:33;;;;;;;1.60;0.85;;;;;;;11.21;100.00;98028.72;5050710;28;20021;-80
2021/10/08 03:29:58;;;;;;;0.38;0.38;;;;;;;11.20;100.00;98031.47;5025320;28;20072;-80
2021/10/08 03:32:24;;;;;;;0.50;0.50;;;;;;;11.12;100.00;98029.25;5032810;28;20491;-80
2021/10/08 03:34:49;;;;;;;1.38;0.88;;;;;;;11.15;100.00;98034.44;5029374;28;20043;-81
2021/10/08 03:37:19;;;;;;;0.40;0.40;;;;;;;11.21;100.00;98028.72;5045498;28;20021;-80
2021/10/08 03:39:47;;;;;;;5.53;1.70;;;;;;;11.22;100.00;98035.81;5027692;28;20040;-80
2021/10/08 03:42:17;;;;;;;0.10;0.10;;;;;;;11.26;100.00;98048.06;5023263;28;20033;-79
2021/10/08 03:44:46;;;;;;;0.95;0.47;;;;;;;11.11;100.00;98024.84;5023950;28;20029;-79
2021/10/08 03:47:15;;;;;;;1.10;1.00;;;;;;;10.97;100.00;98008.69;5025556;28;20083;-79
2021/10/08 03:49:42;;;;;;;0.77;0.73;;;;;;;11.05;100.00;98035.03;5034210;28;20087;-79
2021/10/08 03:52:08;;;;;;;0.15;0.15;;;;;;;11.12;100.00;98047.13;5025327;28;20427;-80
2021/10/08 03:54:34;;;;;;;0.68;0.32;;;;;;;10.97;100.00;98034.59;5046313;28;20377;-80
2021/10/08 03:57:00;;;;;;;0.68;0.38;;;;;;;10.99;100.00;98038.03;5062050;28;20023;-80
2021/10/08 03:59:25;;;;;;;1.85;0.60;;;;;;;11.08;100.00;98030.38;5042352;28;20549;-79
2021/10/08 04:01:51;;;;;;;1.55;0.52;;;;;;;11.05;100.00;98027.00;5021212;28;20451;-80
2021/10/08 04:04:16;;;;;;;0.40;0.40;;;;;;;10.89;100.00;98003.75;5028938;28;20017;-79
2021/10/08 04:06:42;;;;;;;1.02;0.80;;;;;;;10.96;100.00;98006.97;5020705;28;20021;-80
2021/10/08 04:09:08;;;;;;;2.47;1.02;;;;;;;11.01;100.00;98010.28;5045641;28;20150;-80
2021/10/08 04:11:34;;;;;;;2.72;0.70;;;;;;;11.11;100.00;98022.16;5024683;28;20017;-80
2021/10/08 04:13:59;;;;;;;1.60;0.75;;;;;;;11.17;100.00;98027.16;5049519;28;20033;-80
2021/10/08 04:16:25;;;;;;;7.30;1.65;;;;;;;11.17;100.00;98037.88;5022153;28;20090;-80
2021/10/08 04:18:51;;;;;;;1.13;0.88;;;;;;;11.10;100.00;98031.16;5044794;28;20035;-80
2021/10/08 04:21:16;;;;;;;0.35;0.32;;;;;;;11.18;100.00;98026.22;5049418;28;20026;-80
2021/10/08 04:23:42;;;;;;;0.45;0.45;;;;;;;11.25;100.00;98024.06;5028817;28;20060;-81
2021/10/08 04:26:09;;;;;;;0.75;0.68;;;;;;;11.17;100.00;98032.53;5020705;28;20025;-74
2021/10/08 04:28:35;;;;;;;0.85;0.75;;;;;;;11.11;100.00;98029.31;5038243;28;20056;-72
2021/10/08 04:31:00;;;;;;;1.50;0.85;;;;;;;11.06;100.00;98024.25;5050383;28;20036;-81
2021/10/08 04:33:27;;;;;;;2.75;0.50;;;;;;;11.11;100.00;98034.69;5025391;28;20496;-81
2021/10/08 04:35:59;;;;;;;2.40;1.52;;;;;;;11.19;100.00;98052.06;5043489;28;20025;-81
2021/10/08 04:38:25;;;;;;;1.70;0.60;;;;;;;11.22;100.00;98056.38;5025033;28;20025;-81
2021/10/08 04:40:51;;;;;;;1.45;1.08;;;;;;;11.17;100.00;98034.31;5016223;28;20475;-81
2021/10/08 04:43:16;;;;;;;1.13;0.95;;;;;;;11.22;100.00;98034.94;5047006;28;20040;-81
2021/10/08 04:45:42;;;;;;;1.42;1.10;;;;;;;11.27;100.00;98044.44;5026764;28;20116;-81
2021/10/08 04:48:10;;;;;;;2.35;1.48;;;;;;;11.18;100.00;98039.63;5027166;28;20080;-81
2021/10/08 04:50:35;;;;;;;0.70;0.70;;;;;;;11.23;100.00;98052.72;5043686;28;20039;-80
2021/10/08 04:53:21;;;;;;;1.30;0.55;;;;;;;11.24;100.00;98049.09;5027002;28;20490;-80
2021/10/08 04:55:47;;;;;;;1.27;0.98;;;;;;;11.30;100.00;98051.44;5047473;28;20056;-80
2021/10/08 04:58:13;;;;;;;0.68;0.60;;;;;;;11.22;100.00;98041.19;5045662;28;20127;-81
2021/10/08 05:00:39;;;;;;;1.15;1.02;;;;;;;11.14;100.00;98027.34;5044062;28;20098;-82
2021/10/08 05:03:12;;;;;;;1.75;0.90;;;;;;;11.29;100.00;98053.25;5046962;28;20037;-83
2021/10/08 05:05:39;;;;;;;1.88;1.30;;;;;;;11.31;100.00;98048.69;5053843;28;20033;-81
2021/10/08 05:08:05;;;;;;;0.25;0.25;;;;;;;11.33;100.00;98049.44;5026340;28;20029;-81
2021/10/08 05:10:31;;;;;;;0.70;0.70;;;;;;;11.33;100.00;98048.59;5029521;28;20036;-81
2021/10/08 05:12:57;;;;;;;1.30;1.02;;;;;;;11.38;100.00;98047.38;5039790;28;20041;-81
2021/10/08 05:15:23;;;;;;;4.22;1.70;;;;;;;11.31;100.00;98027.25;5028807;28;20108;-81
2021/10/08 05:17:48;;;;;;;1.73;1.45;;;;;;;11.26;100.00;98026.66;5025965;28;20080;-81
2021/10/08 05:20:14;;;;;;;4.28;1.23;;;;;;;11.23;100.00;98029.50;5026120;28;20531;-81
2021/10/08 05:22:40;;;;;;;2.92;1.48;;;;;;;11.16;100.00;98041.53;5039386;28;20485;-81
2021/10/08 05:25:06;;;;;;;0.93;0.93;;;;;;;11.13;100.00;98031.00;5021353;28;20025;-81
2021/10/08 05:27:31;;;;;;;1.10;0.68;;;;;;;11.20;100.00;98042.19;5042097;28;20024;-81
2021/10/08 05:29:57;;;;;;;1.45;0.70;;;;;;;11.23;100.00;98044.69;5036969;28;20041;-81
2021/10/08 05:32:22;;;;;;;1.75;0.93;;;;;;;11.21;100.00;98044.78;5040324;28;20048;-81
2021/10/08 05:34:48;;;;;;;0.73;0.73;;;;;;;11.24;100.00;98049.97;5022009;28;20039;-81
2021/10/08 05:37:14;;;;;;;4.25;0.77;;;;;;;11.14;100.00;98043.41;5026858;28;20079;-81
2021/10/08 05:39:39;;;;;;;1.15;1.05;;;;;;;11.14;100.00;98030.03;5024865;28;20021;-81
2021/10/08 05:42:05;;;;;;;0.60;0.60;;;;;;;11.21;100.00;98054.63;5023485;28;20156;-81
2021/10/08 05:44:31;;;;;;;2.42;0.98;;;;;;;11.15;100.00;98052.31;5044590;28;20020;-81
2021/10/08 05:46:56;;;;;;;1.30;0.75;;;;;;;10.79;100.00;97988.31;5017465;28;20030;-82
2021/10/08 05:49:22;;;;;;;1.80;1.30;;;;;;;11.12;100.00;98045.31;5028531;28;20039;-81
2021/10/08 05:51:47;;;;;;;0.50;0.50;;;;;;;11.00;100.00;98035.28;5024756;28;20051;-82
2021/10/08 05:54:13;;;;;;;2.47;2.17;;;;;;;11.04;100.00;98047.56;5049749;28;20069;-81
2021/10/08 05:56:39;;;;;;;0.65;0.57;;;;;;;11.12;100.00;98052.47;5048658;28;20025;-81
2021/10/08 05:59:04;;;;;;;1.25;0.55;;;;;;;11.04;100.00;98050.25;5028667;28;20572;-81
2021/10/08 06:01:30;;;;;;;1.20;0.98;;;;;;;11.05;100.00;98051.94;5046216;28;20049;-81
2021/10/08 06:03:55;;;;;;;0.40;0.30;;;;;;;10.84;100.00;98013.00;5023418;28;20558;-81
2021/10/08 06:06:21;;;;;;;0.63;0.63;;;;;;;11.11;100.00;98058.78;5023710;28;20119;-81
2021/10/08 06:08:46;;;;;;;0.47;0.40;;;;;;;10.83;100.00;98022.84;5033385;28;20033;-82
2021/10/08 06:11:13;;;;;;;1.27;0.98;;;;;;;11.05;100.00;98054.63;5033832;28;20025;-80
2021/10/08 06:13:38;;;;;;;0.80;0.63;;;;;;;10.89;100.00;98029.66;5016413;28;20056;-81
2021/10/08 06:16:04;;;;;;;1.05;0.85;;;;;;;10.98;100.00;98050.59;5029661;28;20024;-81
2021/10/08 06:18:29;;;;;;;0.50;0.38;;;;;;;11.09;100.00;98045.50;5045135;28;20541;-82
2021/10/08 06:20:55;;;;;;;0.73;0.50;;;;;;;11.13;100.00;98054.22;5020315;28;20024;-81
2021/10/08 06:23:21;;;;;;;1.17;1.08;;;;;;;11.07;100.00;98047.41;5018694;28;20039;-81
2021/10/08 06:25:47;;;;;;;5.93;1.38;;;;;;;11.14;100.00;98043.41;5036676;28;20179;-82
2021/10/08 06:28:13;;;;;;;0.63;0.63;;;;;;;11.13;100.00;98047.06;5050228;28;20043;-82
2021/10/08 06:30:39;;;;;;;1.35;0.82;;;;;;;11.18;100.00;98055.69;5033474;28;20448;-80
2021/10/08 06:33:04;;;;;;;2.30;0.38;;;;;;;11.16;100.00;98052.25;5038698;28;20035;-80
2021/10/08 06:35:32;;;;;;;0.65;0.52;;;;;;;11.11;100.00;98048.94;5029844;28;20017;-81
2021/10/08 06:37:58;;;;;;;0.35;0.35;;;;;;;11.14;100.00;98047.88;5041422;28;20134;-81
2021/10/08 06:40:24;;;;;;;0.60;0.40;;;;;;;11.10;100.00;98057.94;5013985;28;20065;-81
2021/10/08 06:42:49;;;;;;;0.90;0.75;;;;;;;11.11;100.00;98051.63;5027793;28;20493;-82
2021/10/08 06:45:15;;;;;;;0.10;0.10;;;;;;;11.01;100.00;98031.69;5041726;28;20514;-81
2021/10/08 06:47:40;;;;;;;0.68;0.65;;;;;;;11.17;100.00;98051.25;5013863;28;20048;-81
2021/10/08 06:50:06;;;;;;;1.05;0.95;;;;;;;11.19;100.00;98057.41;5049222;28;20447;-81
2021/10/08 06:52:32;;;;;;;1.48;1.00;;;;;;;11.16;100.00;98054.91;5043816;28;20024;-81
2021/10/08 06:54:58;;;;;;;0.57;0.30;;;;;;;11.20;100.00;98044.88;5023941;28;20457;-79
2021/10/08 06:57:23;;;;;;;0.50;0.45;;;;;;;11.22;100.00;98045.66;5021719;28;20133;-81
2021/10/08 06:59:49;;;;;;;0.80;0.80;;;;;;;11.25;100.00;98057.06;5031142;28;20526;-81
2021/10/08 07:02:16;;;;;;;0.50;0.50;;;;;;;11.35;100.00;98063.63;5036746;28;20104;-81
2021/10/08 07:04:42;;;;;;;1.02;0.93;;;;;;;11.02;100.00;98037.88;5029854;28;20036;-81
2021/10/08 07:07:07;;;;;;;1.92;1.15;;;;;;;11.08;100.00;98059.81;5046795;28;20025;-81
2021/10/08 07:09:33;;;;;;;1.52;1.05;;;;;;;11.01;100.00;98050.41;5047272;28;20024;-81
2021/10/08 07:11:58;;;;;;;1.35;1.15;;;;;;;11.30;100.00;98087.13;5017272;28;20382;-81
2021/10/08 07:14:25;;;;;;;0.25;0.15;;;;;;;11.13;100.00;98075.63;5019107;28;20112;-81
2021/10/08 07:16:54;;;;;;;0.50;0.50;;;;;;;11.11;100.00;98075.69;5013243;28;20026;-81
2021/10/08 07:19:20;;;;;;;0.43;0.43;;;;;;;11.22;100.00;98092.06;5036392;28;20048;-81
2021/10/08 07:21:46;;;;;;;0.88;0.57;;;;;;;11.26;100.00;98092.72;5047569;28;20044;-80
2021/10/08 07:24:12;;;;;;;4.47;0.43;;;;;;;11.20;100.00;98099.28;5020268;28;20577;-81
2021/10/08 07:26:38;;;;;;;1.00;0.63;;;;;;;11.26;100.00;98098.94;5013177;28;20464;-81
2021/10/08 07:29:04;;;;;;;0.00;0.00;;;;;;;11.18;100.00;98087.81;5048671;28;20032;-81
2021/10/08 07:31:30;;;;;;;0.80;0.80;;;;;;;11.07;100.00;98065.28;5029720;28;20025;-81
2021/10/08 07:33:56;;;;;;;1.75;0.68;;;;;;;11.23;100.00;98099.13;5013096;28;20018;-81
2021/10/08 07:36:22;;;;;;;0.30;0.30;;;;;;;11.27;100.00;98108.72;5013506;28;20427;-81
2021/10/08 07:38:47;;;;;;;0.25;0.20;;;;;;;11.20;100.00;98095.75;5046466;28;20025;-81
2021/10/08 07:41:13;;;;;;;0.10;0.10;;;;;;;11.19;100.00;98084.19;5038372;28;20510;-82
2021/10/08 07:43:40;;;;;;;0.75;0.70;;;;;;;10.94;100.00;98040.13;5013052;28;20385;-81
2021/10/08 07:46:07;;;;;;;0.50;0.25;;;;;;;11.26;100.00;98090.03;5031522;28;20025;-81
2021/10/08 07:48:33;;;;;;;0.30;0.30;;;;;;;11.24;100.00;98086.59;5018835;28;20072;-81
2021/10/08 07:50:59;;;;;;;0.90;0.52;;;;;;;11.22;100.00;98073.31;5022215;28;20037;-81
2021/10/08 07:53:25;;;;;;;0.90;0.60;;;;;;;11.12;100.00;98074.78;5032763;28;20084;-81
2021/10/08 07:55:50;;;;;;;0.32;0.32;;;;;;;11.16;100.00;98065.63;5016645;28;20145;-81
2021/10/08 07:58:16;;;;;;;0.88;0.47;;;;;;;11.23;100.00;98069.66;5012830;28;20025;-81
2021/10/08 08:00:42;;;;;;;1.10;0.70;;;;;;;11.15;100.00;98065.69;5036406;28;20478;-82
2021/10/08 08:03:08;;;;;;;1.73;1.30;;;;;;;11.19;100.00;98081.50;5016930;28;20032;-82
2021/10/08 08:05:33;;;;;;;0.88;0.45;;;;;;;11.33;100.00;98094.13;5016519;28;20021;-81
2021/10/08 08:07:59;;;;;;;0.75;0.65;;;;;;;11.23;100.00;98101.78;5024717;28;20048;-81
2021/10/08 08:10:24;;;;;;;1.60;0.70;;;;;;;11.15;100.00;98113.88;5028761;28;20038;-82
2021/10/08 08:12:50;;;;;;;0.63;0.63;;;;;;;11.07;100.00;98111.66;5023308;28;20033;-81
2021/10/08 08:15:18;;;;;;;1.10;1.05;;;;;;;11.13;100.00;98127.38;5041740;28;20104;-82
2021/10/08 08:17:43;;;;;;;1.35;0.60;;;;;;;11.23;100.00;98133.06;5020174;28;20021;-83
2021/10/08 08:20:09;;;;;;;0.20;0.20;;;;;;;11.11;100.00;98123.03;5027481;28;20033;-81
2021/10/08 08:22:35;;;;;;;0.45;0.45;;;;;;;11.17;100.00;98131.59;5033037;28;20021;-81
2021/10/08 08:25:02;;;;;;;0.63;0.63;;;;;;;11.04;100.00;98116.31;5027324;28;20064;-81
2021/10/08 08:27:27;;;;;;;0.95;0.90;;;;;;;11.04;100.00;98110.94;5027647;28;20021;-81
2021/10/08 08:29:53;;;;;;;0.28;0.28;;;;;;;11.23;100.00;98133.94;5043221;28;20032;-81
2021/10/08 08:32:18;;;;;;;0.73;0.40;;;;;;;11.17;100.00;98118.19;5025650;28;20037;-81
2021/10/08 08:34:44;;;;;;;0.30;0.30;;;;;;;11.17;100.00;98120.88;5024637;28;20025;-81
2021/10/08 08:37:10;;;;;;;0.30;0.30;;;;;;;11.07;100.00;98116.13;5025358;28;20036;-82
2021/10/08 08:39:38;;;;;;;0.70;0.52;;;;;;;11.07;100.00;98140.22;5024485;28;20030;-81
2021/10/08 08:42:04;;;;;;;0.75;0.68;;;;;;;11.10;100.00;98138.25;5024151;28;20025;-81
2021/10/08 08:44:30;;;;;;;0.20;0.20;;;;;;;11.07;100.00;98142.91;5040256;28;20056;-82
2021/10/08 08:46:57;;;;;;;0.63;0.60;;;;;;;11.01;100.00;98141.44;5025145;28;20128;-81
2021/10/08 08:49:23;;;;;;;1.48;0.82;;;;;;;11.07;100.00;98149.13;5028335;28;20029;-81
2021/10/08 08:51:49;;;;;;;3.30;1.50;;;;;;;11.06;100.00;98158.09;5043587;28;20037;-81
2021/10/08 08:54:14;;;;;;;0.52;0.52;;;;;;;11.02;100.00;98164.56;5022313;28;20464;-81
2021/10/08 08:56:40;;;;;;;12.70;1.00;;;;;;;11.05;100.00;98164.38;5020830;28;20025;-81
2021/10/08 08:59:09;;;;;;;3.22;0.80;;;;;;;10.97;100.00;98160.41;5028833;28;20055;-80
2021/10/08 09:01:35;;;;;;;0.52;0.52;;;;;;;11.00;100.00;98171.81;5028113;28;20030;-80
2021/10/08 09:04:08;;;;;;;0.63;0.63;;;;;;;11.11;100.00;98180.13;5042656;28;20032;-80
2021/10/08 09:06:38;;;;;;;2.00;1.50;;;;;;;11.06;100.00;98163.44;5019770;28;20110;-81
2021/10/08 09:09:33;;;;;;;1.65;0.82;;;;;;;11.18;100.00;98168.16;5034491;28;20033;-81
2021/10/08 09:11:59;;;;;;;0.73;0.55;;;;;;;10.99;100.00;98121.03;5026956;28;20554;-81
2021/10/08 09:14:32;;;;;;;1.83;1.45;;;;;;;11.05;100.00;98121.56;5031002;28;20111;-81
2021/10/08 09:17:15;;;;;;;0.38;0.38;;;;;;;11.03;100.00;98139.53;5022873;28;20021;-81
2021/10/08 09:19:48;;;;;;;2.40;1.63;;;;;;;11.06;100.00;98155.41;5034418;28;20025;-81
2021/10/08 09:22:26;;;;;;;3.38;1.48;;;;;;;10.99;100.00;98143.31;5025488;28;20033;-80
2021/10/08 09:24:53;;;;;;;1.55;1.08;;;;;;;10.99;100.00;98145.97;5024355;28;20179;-80
2021/10/08 09:27:21;;;;;;;10.00;2.95;;;;;;;10.93;100.00;98151.66;5047978;28;20025;-81
2021/10/08 09:29:52;;;;;;;8.10;3.33;;;;;;;10.77;100.00;98140.03;5039945;28;20057;-81
2021/10/08 09:32:22;;;;;;;2.25;2.05;;;;;;;10.75;100.00;98140.16;5023215;28;20092;-81
2021/10/08 09:35:07;;;;;;;2.85;1.20;;;;;;;10.78;100.00;98149.81;5043442;28;20025;-81
2021/10/08 09:37:34;;;;;;;3.58;1.88;;;;;;;10.86;100.00;98160.97;5029882;28;20408;-81
2021/10/08 09:39:59;;;;;;;0.60;0.60;;;;;;;10.82;100.00;98148.72;5025639;28;20408;-80
2021/10/08 09:42:33;;;;;;;3.28;1.70;;;;;;;10.89;100.00;98144.75;5018691;28;20030;-81
2021/10/08 09:44:59;;;;;;;8.57;1.77;;;;;;;10.85;100.00;98156.59;5042861;28;20021;-80
2021/10/08 09:47:27;;;;;;;1.13;1.02;;;;;;;10.92;100.00;98144.56;5045961;28;20909;-81
2021/10/08 09:50:06;;;;;;;0.68;0.68;;;;;;;10.86;100.00;98131.53;5027136;28;20424;-80
2021/10/08 09:52:32;;;;;;;2.40;0.85;;;;;;;10.92;100.00;98144.56;5023221;28;20021;-81
2021/10/08 09:55:05;;;;;;;4.15;1.73;;;;;;;10.69;100.00;98134.25;5038269;28;20021;-80
2021/10/08 09:57:50;;;;;;;;;;;;;;;10.99;100.00;98167.41;5044292;28;20028;-80
2021/10/08 10:00:43;;;;;;;0.95;0.93;;;;;;;10.96;100.00;98166.69;5037596;28;19999;-81
2021/10/08 10:03:11;;;;;;;1.35;1.17;;;;;;;10.95;100.00;98159.63;5035423;28;20033;-80
2021/10/08 10:05:37;;;;;;;3.72;1.48;;;;;;;10.96;100.00;98164.88;5032089;28;20111;-82
2021/10/08 10:08:03;;;;;;;3.88;2.50;;;;;;;11.02;100.00;98182.44;5021699;28;20119;-80
2021/10/08 10:10:30;;;;;;;2.10;1.55;;;;;;;10.76;100.00;98144.56;5045670;28;20020;-79
2021/10/08 10:12:56;;;;;;;0.52;0.52;;;;;;;10.72;100.00;98158.16;5018578;28;20025;-80
2021/10/08 10:15:29;;;;;;;0.43;0.43;;;;;;;10.99;100.00;98185.28;5028077;28;20059;-80
2021/10/08 10:18:03;;;;;;;15.88;1.60;;;;;;;10.92;100.00;98187.41;5068007;28;20025;-80
2021/10/08 10:20:34;;;;;;;1.05;0.95;;;;;;;10.78;100.00;98144.47;5051304;28;20036;-81
2021/10/08 10:23:00;;;;;;;0.63;0.63;;;;;;;11.00;100.00;98185.19;5048731;28;20037;-82
2021/10/08 10:25:25;;;;;;;0.47;0.47;;;;;;;10.78;100.00;98145.34;5022453;28;20074;-79
2021/10/08 10:27:51;;;;;;;3.20;1.08;;;;;;;10.78;100.00;98157.84;5022770;28;20030;-80
2021/10/08 10:30:20;;;;;;;1.90;0.77;;;;;;;10.74;100.00;98140.22;5022242;28;20068;-80
2021/10/08 10:32:47;;;;;;;1.23;0.70;;;;;;;10.86;100.00;98177.88;5023888;28;20032;-80
2021/10/08 10:35:45;;;;;;;0.90;0.47;;;;;;;10.68;100.00;98180.66;5021056;28;20037;-82
2021/10/08 10:38:40;;;;;;;0.40;0.35;;;;;;;10.59;100.00;98181.16;5024643;28;20406;-80
2021/10/08 10:41:08;;;;;;;1.20;0.50;;;;;;;10.57;100.00;98175.88;5011112;28;20144;-80
2021/10/08 10:43:45;;;;;;;0.75;0.70;;;;;;;10.61;100.00;98177.44;5041771;28;20094;-80
2021/10/08 10:49:27;;;;;;;3.05;1.10;;;;;;;10.58;100.00;98174.09;5054061;28;20580;-79
2021/10/08 10:51:56;;;;;;;1.15;0.90;;;;;;;10.70;100.00;98166.28;5047670;28;20510;-81
2021/10/08 10:54:34;;;;;;;18.92;1.55;;;;;;;10.75;100.00;98150.84;5036438;28;20025;-79
2021/10/08 10:57:03;;;;;;;1.17;1.08;;;;;;;10.66;100.00;98115.69;5045341;28;20112;-79
2021/10/08 10:59:30;;;;;;;0.93;0.90;;;;;;;10.76;100.00;98131.19;5043615;28;20025;-79
2021/10/08 11:02:08;;;;;;;1.63;0.65;;;;;;;10.80;100.00;98123.81;5046350;28;20491;-80
2021/10/08 11:04:45;;;;;;;2.65;0.85;;;;;;;10.57;100.00;98101.00;5029828;28;20504;-80
2021/10/08 11:07:13;;;;;;;2.17;1.30;;;;;;;10.70;100.00;98122.59;5043603;28;20412;-82
2021/10/08 11:09:40;;;;;;;3.80;1.75;;;;;;;10.70;100.00;98122.59;5040703;28;20037;-82
2021/10/08 11:12:27;;;;;;;0.82;0.82;;;;;;;10.54;100.00;98111.84;5037190;28;20037;-79
2021/10/08 11:15:15;;;;;;;3.28;1.35;;;;;;;10.68;100.00;98113.78;5037967;28;20032;-79
2021/10/08 11:17:52;;;;;;;3.80;1.42;;;;;;;10.49;100.00;98094.31;5039485;28;20026;-79
2021/10/08 11:20:31;;;;;;;2.10;0.88;;;;;;;10.61;100.00;98118.59;5037540;28;20095;-80
2021/10/08 11:23:03;;;;;;;1.92;1.00;;;;;;;10.67;100.00;98120.09;5041009;28;20120;-80
2021/10/08 11:25:58;;;;;;;0.45;0.40;;;;;;;10.42;100.00;98084.88;5025833;28;20036;-80
2021/10/08 11:28:43;;;;;;;10.65;4.35;;;;;;;10.74;100.00;98132.19;5041348;28;20037;-80